Share

Agstapha, Azerbaijan

6:32 PM AZST on April 24, 2014 (GMT +0500)
Gyandzha (UBBG) Elev 1083 ft | 40.74 °N, 46.32 °E | Change Station

Current weather conditions updated 32 minutes ago

Mostly Cloudy
Mostly Cloudy
73 °F
Feels Like 73 °F
N
14
Wind Variable Wind from West
Sunrise 7:06 AM
Sunset 8:47 PM
Moon Waning Crescent

Tomorrow is forecast to be Cooler than today. Showers possible in the afternoon.

Pressure 29.86 in
Visibility 6.2 miles
Clouds Few 5000 ft
Mostly Cloudy 8300 ft
Dew Point 39 °F
Humidity 29%
Rainfall 0.00 in
Snow Depth Not available.
UV 2 out of 16
Pollen Not available.
Air Quality Not available.
Flu Activity Not available.
METAR UBBG 241300Z 28012KT 9999 FEW050 BKN083 23/04 Q1011 R30/CLRD70 NOSIG

More Conditions Fewer Conditions

Pressure 29.86 in
Visibility 6.2 miles
Clouds Few 5000 ft
Mostly Cloudy 8300 ft
Dew Point 39 °F
Humidity 29%
Rainfall 0.00 in
Snow Depth Not available.
UV 2 out of 16
Pollen Not available.
Air Quality Not available.
Flu Activity Not available.
METAR UBBG 241300Z 28012KT 9999 FEW050 BKN083 23/04 Q1011 R30/CLRD70 NOSIG

More Conditions Fewer Conditions

10-Day Weather Forecast

Almanac

Astronomy

Apr. 24, 2014 Rise Set
Actual Time 7:06 AM AZST 8:47 PM AZST
Civil Twilight 6:36 AM AZST 9:16 PM AZST
Nautical Twilight 6:01 AM AZST 9:52 PM AZST
Astronomical Twilight 5:23 AM AZST 10:30 PM AZST
Moon 4:05 AM AZST 3:35 PM AZST
Length of Visible Light 14h 39m
Length of Day
13h 41m
Tomorrow will be 2m 30s longer.
Waning Crescent, 25% of the Moon is Illuminated
Today
Waning Crescent
Apr 29
New
May 6
First Quarter
May 14
Full
May 21
Last Quarter

Yesterday's Extremes

Country Highs Country Lows

Community

  • Stacked
    Stacked
  • clouds approaching Red Sox Nation
    clouds approaching Red Sox Nation
  • Balance
    Balance
  • Citysky
    Citysky
  • Nestled In
    Nestled In

WunderPhotos

Upload Photos

1,704,605 photos uploaded!

Nearby

Snow Depth

Not available.

Coastal Water Temperatures

Place Temperature
No Stations Reporting

Earthquake Activity

City Distance Mag. Time & Date
No recent earthquake activity has been reported nearby.
Minimum magnitude displayed is 2.5.

Nearby Weather Stations

There are no personal weather stations in this area.

What do you think?

We're not finished. Please let us know what you like, what you don't like, and what you are still missing.